createdAt,value
2018-12-08T00:00:19.662Z,99.90
2018-12-08T00:02:47.170Z,99.90
2018-12-08T00:05:14.690Z,99.90
2018-12-08T00:07:42.189Z,99.90
2018-12-08T00:10:09.687Z,99.90
2018-12-08T00:12:37.202Z,99.90
2018-12-08T00:15:04.947Z,99.90
2018-12-08T00:17:32.445Z,99.90
2018-12-08T00:19:59.949Z,99.90
2018-12-08T00:22:27.464Z,99.90
2018-12-08T00:24:55.025Z,99.90
2018-12-08T00:27:22.535Z,99.90
2018-12-08T00:29:50.049Z,99.90
2018-12-08T00:32:17.540Z,99.90
2018-12-08T00:34:45.049Z,99.90
2018-12-08T00:37:12.551Z,99.90
2018-12-08T00:39:40.062Z,99.90
2018-12-08T00:42:07.798Z,99.90
2018-12-08T00:44:36.236Z,99.90
2018-12-08T00:47:03.742Z,99.90
2018-12-08T00:49:31.251Z,99.90
2018-12-08T00:51:58.802Z,99.90
2018-12-08T00:54:26.313Z,99.90
2018-12-08T00:56:53.864Z,99.90
2018-12-08T00:59:21.370Z,99.90
2018-12-08T01:01:48.864Z,99.90
2018-12-08T01:04:16.386Z,99.90
2018-12-08T01:06:43.999Z,99.90
2018-12-08T01:09:11.502Z,99.90
2018-12-08T01:11:39.013Z,99.90
2018-12-08T01:14:06.533Z,99.90
2018-12-08T01:16:34.054Z,99.90
2018-12-08T01:19:01.553Z,99.90
2018-12-08T01:21:29.315Z,99.90
2018-12-08T01:23:56.839Z,99.90
2018-12-08T01:26:24.339Z,99.90
2018-12-08T01:28:51.841Z,99.90
2018-12-08T01:31:19.336Z,99.90
2018-12-08T01:33:46.852Z,99.90
2018-12-08T01:36:14.484Z,99.90
2018-12-08T01:38:41.964Z,99.90
2018-12-08T01:41:09.458Z,99.90
2018-12-08T01:43:37.019Z,99.90
2018-12-08T01:46:04.536Z,99.90
2018-12-08T01:48:32.285Z,99.90
2018-12-08T01:50:59.790Z,99.90
2018-12-08T01:53:27.571Z,99.90
2018-12-08T01:55:55.083Z,99.90
2018-12-08T01:58:22.579Z,99.90
2018-12-08T02:00:50.081Z,99.90
2018-12-08T02:03:17.571Z,99.90
2018-12-08T02:05:45.077Z,99.90
2018-12-08T02:08:12.584Z,99.90
2018-12-08T02:10:40.318Z,99.90
2018-12-08T02:13:07.811Z,99.90
2018-12-08T02:15:35.634Z,99.90
2018-12-08T02:18:03.131Z,99.90
2018-12-08T02:20:30.649Z,99.90
2018-12-08T02:22:58.147Z,99.90
2018-12-08T02:25:25.651Z,99.90
2018-12-08T02:27:53.165Z,99.90
2018-12-08T02:30:20.667Z,99.90
2018-12-08T02:32:48.179Z,99.90
2018-12-08T02:35:15.670Z,99.90
2018-12-08T02:37:43.163Z,99.90
2018-12-08T02:40:10.755Z,99.90
2018-12-08T02:42:38.440Z,99.90
2018-12-08T02:45:06.309Z,99.90
2018-12-08T02:47:33.794Z,99.90
2018-12-08T02:50:01.324Z,99.90
2018-12-08T02:52:28.883Z,99.90
2018-12-08T02:54:56.382Z,99.90
2018-12-08T02:57:24.125Z,99.90
2018-12-08T02:59:51.627Z,99.90
2018-12-08T03:02:19.118Z,99.90
2018-12-08T03:04:46.830Z,99.90
2018-12-08T03:07:14.340Z,99.90
2018-12-08T03:09:41.839Z,99.90
2018-12-08T03:12:09.366Z,99.90
2018-12-08T03:14:36.870Z,99.90
2018-12-08T03:17:04.435Z,99.90
2018-12-08T03:19:31.937Z,99.90
2018-12-08T03:21:59.434Z,99.90
2018-12-08T03:24:26.926Z,99.90
2018-12-08T03:26:54.431Z,99.90
2018-12-08T03:29:21.938Z,99.90
2018-12-08T03:31:49.450Z,99.90
2018-12-08T03:34:16.955Z,99.90
2018-12-08T03:36:44.447Z,99.90
2018-12-08T03:39:11.949Z,99.90
2018-12-08T03:41:39.465Z,99.90
2018-12-08T03:44:06.962Z,99.90
2018-12-08T03:46:34.470Z,99.90
2018-12-08T03:49:01.971Z,99.90
2018-12-08T03:51:29.832Z,99.90
2018-12-08T03:53:57.348Z,99.90
2018-12-08T03:56:24.977Z,99.90
2018-12-08T03:58:52.500Z,99.90
2018-12-08T04:01:19.993Z,99.90
2018-12-08T04:03:47.480Z,99.90
2018-12-08T04:06:15.194Z,99.90
2018-12-08T04:08:42.696Z,99.90
2018-12-08T04:11:10.194Z,99.90
2018-12-08T04:13:37.905Z,99.90
2018-12-08T04:16:05.413Z,99.90
2018-12-08T04:18:33.175Z,99.90
2018-12-08T04:21:00.679Z,99.90
2018-12-08T04:23:28.212Z,99.90
2018-12-08T04:25:55.812Z,99.90
2018-12-08T04:28:23.413Z,99.90
2018-12-08T04:30:50.921Z,99.90
2018-12-08T04:33:18.409Z,99.90
2018-12-08T04:35:45.904Z,99.90
2018-12-08T04:38:13.398Z,99.90
2018-12-08T04:40:40.901Z,99.90
2018-12-08T04:43:08.405Z,99.90
2018-12-08T04:45:35.918Z,99.90
2018-12-08T04:48:03.425Z,99.90
2018-12-08T04:50:30.927Z,99.90
2018-12-08T04:52:58.424Z,99.90
2018-12-08T04:55:26.031Z,99.90
2018-12-08T04:57:53.545Z,99.90
2018-12-08T05:00:21.039Z,99.90
2018-12-08T05:02:48.532Z,99.90
2018-12-08T05:05:16.084Z,99.90
2018-12-08T05:07:43.581Z,99.90
2018-12-08T05:10:11.095Z,99.90
2018-12-08T05:12:38.603Z,99.90
2018-12-08T05:15:06.223Z,99.90
2018-12-08T05:17:33.727Z,99.90
2018-12-08T05:20:01.235Z,99.90
2018-12-08T05:22:28.739Z,99.90
2018-12-08T05:24:56.451Z,99.90
2018-12-08T05:27:23.959Z,99.90
2018-12-08T05:29:51.457Z,99.90
2018-12-08T05:32:18.963Z,99.90
2018-12-08T05:34:46.457Z,99.90
2018-12-08T05:37:13.943Z,99.90
2018-12-08T05:39:41.447Z,99.90
2018-12-08T05:42:09.143Z,99.90
2018-12-08T05:44:36.643Z,99.90
2018-12-08T05:47:04.365Z,99.90
2018-12-08T05:49:31.880Z,99.90
2018-12-08T05:51:59.365Z,99.90
2018-12-08T05:54:26.935Z,99.90
2018-12-08T05:56:54.450Z,99.90
2018-12-08T05:59:21.946Z,99.90
2018-12-08T06:01:49.470Z,99.90
2018-12-08T06:04:16.975Z,99.90
2018-12-08T06:06:44.780Z,99.90
2018-12-08T06:09:12.270Z,99.90
2018-12-08T06:11:39.774Z,99.90
2018-12-08T06:14:07.288Z,99.90
2018-12-08T06:16:34.799Z,99.90
2018-12-08T06:19:02.298Z,99.90
2018-12-08T06:21:35.769Z,99.90
2018-12-08T06:24:03.554Z,99.90
2018-12-08T06:26:34.285Z,99.90
2018-12-08T06:29:01.776Z,99.90
2018-12-08T06:31:29.277Z,99.90
2018-12-08T06:33:56.809Z,99.90
2018-12-08T06:36:24.387Z,99.90
2018-12-08T06:38:51.897Z,99.90
2018-12-08T06:41:19.392Z,99.90
2018-12-08T06:43:46.899Z,99.90
2018-12-08T06:46:14.411Z,99.90
2018-12-08T06:48:42.176Z,99.90
2018-12-08T06:51:09.931Z,99.90
2018-12-08T06:53:37.443Z,99.90
2018-12-08T06:56:04.969Z,99.90
2018-12-08T06:58:32.496Z,99.90
2018-12-08T07:01:00.010Z,99.90
2018-12-08T07:03:27.502Z,99.90
2018-12-08T07:05:54.997Z,99.90
2018-12-08T07:08:22.492Z,99.90
2018-12-08T07:10:50.002Z,99.90
2018-12-08T07:13:17.500Z,99.90
2018-12-08T07:15:45.002Z,99.90
2018-12-08T07:18:12.738Z,99.90
2018-12-08T07:20:40.250Z,99.90
2018-12-08T07:23:07.749Z,99.90
2018-12-08T07:25:35.269Z,99.90
2018-12-08T07:28:02.776Z,99.90
2018-12-08T07:30:30.489Z,99.90
2018-12-08T07:32:57.984Z,99.90
2018-12-08T07:35:25.473Z,99.90
2018-12-08T07:37:52.966Z,99.90
2018-12-08T07:40:20.698Z,99.90
2018-12-08T07:42:48.208Z,99.90
2018-12-08T07:45:15.740Z,99.90
2018-12-08T07:47:43.467Z,99.90
2018-12-08T07:50:10.985Z,99.90
2018-12-08T07:52:38.491Z,99.90
2018-12-08T07:55:06.057Z,99.90
2018-12-08T07:57:33.801Z,99.90
2018-12-08T08:00:01.406Z,99.90
2018-12-08T08:02:29.142Z,99.90
2018-12-08T08:04:56.634Z,99.90
2018-12-08T08:07:24.152Z,99.90
2018-12-08T08:09:51.638Z,99.90
2018-12-08T08:12:19.138Z,99.90
2018-12-08T08:14:46.645Z,99.90
2018-12-08T08:17:14.158Z,99.90
2018-12-08T08:19:41.664Z,99.90
2018-12-08T08:22:09.158Z,99.90
2018-12-08T08:24:36.656Z,99.90
2018-12-08T08:27:04.172Z,99.90
2018-12-08T08:29:31.692Z,99.90
2018-12-08T08:31:59.197Z,99.90
2018-12-08T08:34:26.933Z,99.90
2018-12-08T08:36:54.441Z,99.90
2018-12-08T08:39:21.941Z,99.90
2018-12-08T08:41:49.733Z,99.90
2018-12-08T08:44:17.225Z,99.90
2018-12-08T08:46:44.717Z,99.90
2018-12-08T08:49:12.223Z,99.90
2018-12-08T08:51:39.745Z,99.90
2018-12-08T08:54:07.250Z,99.90
2018-12-08T08:56:34.781Z,99.90
2018-12-08T08:59:02.283Z,99.90
2018-12-08T09:01:29.797Z,99.90
2018-12-08T09:03:57.304Z,99.90
2018-12-08T09:06:24.818Z,99.90
2018-12-08T09:08:52.311Z,99.90
2018-12-08T09:11:19.828Z,99.90
2018-12-08T09:13:47.338Z,99.90
2018-12-08T09:16:14.843Z,99.90
2018-12-08T09:18:42.364Z,99.90
2018-12-08T09:21:09.863Z,99.90
2018-12-08T09:23:37.396Z,99.90
2018-12-08T09:26:04.946Z,99.90
2018-12-08T09:28:32.499Z,99.90
2018-12-08T09:31:00.072Z,99.90
2018-12-08T09:33:27.568Z,99.70
2018-12-08T09:35:55.128Z,99.70
2018-12-08T09:38:22.634Z,99.60
2018-12-08T09:40:50.150Z,98.80
2018-12-08T09:43:17.635Z,99.40
2018-12-08T09:45:45.156Z,98.80
2018-12-08T09:48:12.643Z,97.60
2018-12-08T09:50:40.165Z,96.50
2018-12-08T09:53:13.470Z,96.70
2018-12-08T09:55:41.135Z,94.60
2018-12-08T09:58:08.751Z,94.80
2018-12-08T10:00:36.442Z,93.20
2018-12-08T10:03:04.037Z,92.60
2018-12-08T10:05:31.545Z,92.30
2018-12-08T10:07:59.048Z,89.80
2018-12-08T10:10:26.553Z,85.90
2018-12-08T10:12:54.066Z,85.40
2018-12-08T10:15:21.596Z,81.60
2018-12-08T10:17:49.107Z,79.40
2018-12-08T10:20:17.619Z,76.10
2018-12-08T10:22:45.129Z,72.60
2018-12-08T10:25:12.650Z,71.80
2018-12-08T10:27:40.155Z,73.80
2018-12-08T10:30:10.023Z,71.20
2018-12-08T10:32:38.283Z,69.90
2018-12-08T10:35:10.975Z,66.40
2018-12-08T10:37:39.301Z,65.40
2018-12-08T10:40:08.450Z,66.20
2018-12-08T10:42:36.034Z,66.10
2018-12-08T10:45:04.383Z,66.60
2018-12-08T10:47:31.960Z,65.50
2018-12-08T10:49:59.475Z,63.80
2018-12-08T10:52:26.988Z,63.50
2018-12-08T10:54:54.498Z,63.80
2018-12-08T10:57:22.033Z,65.20
2018-12-08T10:59:49.538Z,64.60
2018-12-08T11:02:23.037Z,64.60
2018-12-08T11:04:50.741Z,63.50
2018-12-08T11:07:18.261Z,63.80
2018-12-08T11:09:46.384Z,63.10
2018-12-08T11:12:13.922Z,60.80
2018-12-08T11:14:41.473Z,60.70
2018-12-08T11:17:08.977Z,61.00
2018-12-08T11:19:36.839Z,60.50
2018-12-08T11:22:04.574Z,59.00
2018-12-08T11:24:32.085Z,58.40
2018-12-08T11:26:59.596Z,58.70
2018-12-08T11:29:27.172Z,58.00
2018-12-08T11:31:54.684Z,56.40
2018-12-08T11:34:22.192Z,57.20
2018-12-08T11:36:49.956Z,57.80
2018-12-08T11:39:17.694Z,57.60
2018-12-08T11:41:45.488Z,57.80
2018-12-08T11:44:13.188Z,58.80
2018-12-08T11:46:41.925Z,58.60
2018-12-08T11:49:09.501Z,59.50
2018-12-08T11:51:37.073Z,59.50
2018-12-08T11:54:04.593Z,59.40
2018-12-08T11:56:32.104Z,58.80
2018-12-08T11:58:59.608Z,57.70
2018-12-08T12:01:27.194Z,57.70
2018-12-08T12:03:54.692Z,57.50
2018-12-08T12:06:22.309Z,59.10
2018-12-08T12:08:49.816Z,59.30
2018-12-08T12:11:17.374Z,59.70
2018-12-08T12:13:44.893Z,59.70
2018-12-08T12:16:12.407Z,59.40
2018-12-08T12:18:39.894Z,60.90
2018-12-08T12:21:07.478Z,62.50
2018-12-08T12:23:34.986Z,62.80
2018-12-08T12:26:02.504Z,63.50
2018-12-08T12:28:30.064Z,63.80
2018-12-08T12:30:57.589Z,63.70
2018-12-08T12:33:25.100Z,64.70
2018-12-08T12:35:52.585Z,66.00
2018-12-08T12:38:20.086Z,65.80
2018-12-08T12:40:47.603Z,66.50
2018-12-08T12:43:15.349Z,64.90
2018-12-08T12:45:42.852Z,63.30
2018-12-08T12:48:10.365Z,63.80
2018-12-08T12:50:38.119Z,63.50
2018-12-08T12:53:05.617Z,63.60
2018-12-08T12:55:33.157Z,63.10
2018-12-08T12:58:00.664Z,63.20
2018-12-08T13:00:28.254Z,63.60
2018-12-08T13:02:55.767Z,63.20
2018-12-08T13:05:23.266Z,64.00
2018-12-08T13:07:50.775Z,64.30
2018-12-08T13:10:18.268Z,64.30
2018-12-08T13:12:45.769Z,63.90
2018-12-08T13:15:13.269Z,64.70
2018-12-08T13:17:40.780Z,63.10
2018-12-08T13:20:08.352Z,63.50
2018-12-08T13:22:35.855Z,63.50
2018-12-08T13:25:22.025Z,64.60
2018-12-08T13:27:49.763Z,64.20
2018-12-08T13:30:17.358Z,64.30
2018-12-08T13:32:44.851Z,64.70
2018-12-08T13:35:20.279Z,63.80
2018-12-08T13:37:47.781Z,63.90
2018-12-08T13:40:15.284Z,64.40
2018-12-08T13:42:42.784Z,64.40
2018-12-08T13:45:15.948Z,64.60
2018-12-08T13:47:44.086Z,65.00
2018-12-08T13:50:11.929Z,65.40
2018-12-08T13:52:39.440Z,65.30
2018-12-08T13:55:07.042Z,65.60
2018-12-08T13:57:34.578Z,66.30
2018-12-08T14:00:02.099Z,66.10
2018-12-08T14:02:29.708Z,66.70
2018-12-08T14:04:57.243Z,67.30
2018-12-08T14:07:24.759Z,67.20
2018-12-08T14:09:52.272Z,67.20
2018-12-08T14:12:19.826Z,66.50
2018-12-08T14:14:47.330Z,67.30
2018-12-08T14:17:14.900Z,67.60
2018-12-08T14:19:42.439Z,67.60
2018-12-08T14:22:09.951Z,67.50
2018-12-08T14:24:37.639Z,67.40
2018-12-08T14:27:05.207Z,67.70
2018-12-08T14:29:32.712Z,68.20
2018-12-08T14:32:01.407Z,68.10
2018-12-08T14:34:28.931Z,68.30
2018-12-08T14:36:56.762Z,67.90
2018-12-08T14:39:24.267Z,68.70
2018-12-08T14:41:52.128Z,68.70
2018-12-08T14:44:19.671Z,69.20
2018-12-08T14:46:47.223Z,69.20
2018-12-08T14:49:14.802Z,69.20
2018-12-08T14:51:42.338Z,69.00
2018-12-08T14:54:09.965Z,69.10
2018-12-08T14:56:38.028Z,69.20
2018-12-08T14:59:05.586Z,70.00
2018-12-08T15:01:33.110Z,70.10
2018-12-08T15:04:00.639Z,70.50
2018-12-08T15:06:28.589Z,70.90
2018-12-08T15:08:56.104Z,71.60
2018-12-08T15:11:23.647Z,71.50
2018-12-08T15:13:51.148Z,71.90
2018-12-08T15:16:18.656Z,72.70
2018-12-08T15:18:46.388Z,72.50
2018-12-08T15:21:13.910Z,72.90
2018-12-08T15:23:41.432Z,73.10
2018-12-08T15:26:08.951Z,73.60
2018-12-08T15:28:36.755Z,74.10
2018-12-08T15:31:04.276Z,74.00
2018-12-08T15:33:31.781Z,74.40
2018-12-08T15:35:59.952Z,74.60
2018-12-08T15:38:27.545Z,75.50
2018-12-08T15:40:55.071Z,75.70
2018-12-08T15:43:22.851Z,75.40
2018-12-08T15:45:50.727Z,75.50
2018-12-08T15:48:18.237Z,75.90
2018-12-08T15:50:45.846Z,76.20
2018-12-08T15:53:13.884Z,76.20
2018-12-08T15:55:41.416Z,76.60
2018-12-08T15:58:09.007Z,76.60
2018-12-08T16:00:36.552Z,77.20
2018-12-08T16:03:04.566Z,76.90
2018-12-08T16:05:32.978Z,77.00
2018-12-08T16:08:00.504Z,77.60
2018-12-08T16:10:28.015Z,77.30
2018-12-08T16:12:55.542Z,77.20
2018-12-08T16:15:23.329Z,77.80
2018-12-08T16:17:50.914Z,77.00
2018-12-08T16:20:18.697Z,78.10
2018-12-08T16:22:46.213Z,78.00
2018-12-08T16:25:13.765Z,78.10
2018-12-08T16:27:41.341Z,78.50
2018-12-08T16:30:09.112Z,79.00
2018-12-08T16:32:36.672Z,79.10
2018-12-08T16:35:04.454Z,79.50
2018-12-08T16:37:31.993Z,79.50
2018-12-08T16:39:59.518Z,79.50
2018-12-08T16:42:27.049Z,79.80
2018-12-08T16:44:54.549Z,79.50
2018-12-08T16:47:22.091Z,79.80
2018-12-08T16:49:49.583Z,80.00
2018-12-08T16:52:17.329Z,80.10
2018-12-08T16:54:44.836Z,79.80
2018-12-08T16:57:12.373Z,80.40
2018-12-08T16:59:40.184Z,79.90
2018-12-08T17:02:08.686Z,79.40
2018-12-08T17:04:36.220Z,79.60
2018-12-08T17:07:03.894Z,79.50
2018-12-08T17:09:31.412Z,79.40
2018-12-08T17:11:59.140Z,79.70
2018-12-08T17:14:26.845Z,80.10
2018-12-08T17:16:54.945Z,80.30
2018-12-08T17:19:22.446Z,80.30
2018-12-08T17:21:49.967Z,80.60
2018-12-08T17:24:18.371Z,80.30
2018-12-08T17:26:45.906Z,80.10
2018-12-08T17:29:13.429Z,80.40
2018-12-08T17:31:40.948Z,80.20
2018-12-08T17:34:08.494Z,80.20
2018-12-08T17:36:36.022Z,80.60
2018-12-08T17:39:05.060Z,81.20
2018-12-08T17:41:32.918Z,81.60
2018-12-08T17:44:00.454Z,82.30
2018-12-08T17:46:29.918Z,82.10
2018-12-08T17:48:57.570Z,82.10
2018-12-08T17:51:26.351Z,82.60
2018-12-08T17:53:53.905Z,83.20
2018-12-08T17:56:21.434Z,82.80
2018-12-08T17:58:48.956Z,83.70
2018-12-08T18:01:16.568Z,84.40
2018-12-08T18:03:44.192Z,84.20
2018-12-08T18:06:11.695Z,84.50
2018-12-08T18:08:39.227Z,84.40
2018-12-08T18:11:06.728Z,84.80
2018-12-08T18:13:34.281Z,85.30
2018-12-08T18:16:02.538Z,85.20
2018-12-08T18:18:30.100Z,85.40
2018-12-08T18:20:57.867Z,85.30
2018-12-08T18:23:25.815Z,85.00
2018-12-08T18:25:53.338Z,85.70
2018-12-08T18:28:20.848Z,85.50
2018-12-08T18:30:49.235Z,84.80
2018-12-08T18:33:16.764Z,85.50
2018-12-08T18:35:44.290Z,85.20
2018-12-08T18:38:11.815Z,85.40
2018-12-08T18:40:39.476Z,85.20
2018-12-08T18:43:07.090Z,85.80
2018-12-08T18:45:34.589Z,85.70
2018-12-08T18:48:02.104Z,85.90
2018-12-08T18:50:29.796Z,85.70
2018-12-08T18:52:57.871Z,86.10
2018-12-08T18:55:25.384Z,86.40
2018-12-08T18:57:52.897Z,85.40
2018-12-08T19:00:20.426Z,84.80
2018-12-08T19:02:47.985Z,85.70
2018-12-08T19:05:15.544Z,85.10
2018-12-08T19:07:43.042Z,84.60
2018-12-08T19:10:11.128Z,84.70
2018-12-08T19:12:38.634Z,84.60
2018-12-08T19:15:06.505Z,84.60
2018-12-08T19:17:34.046Z,84.40
2018-12-08T19:20:01.586Z,83.80
2018-12-08T19:22:29.141Z,84.20
2018-12-08T19:24:56.668Z,83.90
2018-12-08T19:27:24.465Z,83.90
2018-12-08T19:29:52.779Z,84.20
2018-12-08T19:32:21.679Z,84.20
2018-12-08T19:34:49.329Z,83.80
2018-12-08T19:37:17.796Z,83.90
2018-12-08T19:39:45.546Z,83.80
2018-12-08T19:42:13.086Z,83.80
2018-12-08T19:44:40.628Z,83.80
2018-12-08T19:47:09.186Z,83.90
2018-12-08T19:49:36.696Z,83.40
2018-12-08T19:52:04.258Z,84.00
2018-12-08T19:54:31.804Z,84.10
2018-12-08T19:56:59.340Z,84.00
2018-12-08T19:59:26.962Z,84.70
2018-12-08T20:01:55.058Z,84.70
2018-12-08T20:04:22.740Z,84.20
2018-12-08T20:06:50.518Z,83.80
2018-12-08T20:09:18.262Z,84.40
2018-12-08T20:11:46.676Z,84.30
2018-12-08T20:14:14.257Z,84.50
2018-12-08T20:16:41.903Z,84.60
2018-12-08T20:19:09.867Z,84.50
2018-12-08T20:21:38.202Z,85.20
2018-12-08T20:24:05.767Z,85.70
2018-12-08T20:26:33.433Z,86.20
2018-12-08T20:29:01.271Z,86.10
2018-12-08T20:31:28.841Z,85.80
2018-12-08T20:33:56.941Z,85.80
2018-12-08T20:36:24.959Z,86.50
2018-12-08T20:38:52.634Z,87.00
2018-12-08T20:41:20.382Z,86.90
2018-12-08T20:43:48.990Z,87.10
2018-12-08T20:46:16.898Z,88.00
2018-12-08T20:48:44.637Z,88.10
2018-12-08T20:51:13.296Z,88.10
2018-12-08T20:53:41.245Z,87.00
2018-12-08T20:56:08.767Z,85.80
2018-12-08T20:58:36.517Z,85.70
2018-12-08T21:01:04.234Z,84.90
2018-12-08T21:03:31.781Z,85.70
2018-12-08T21:05:59.371Z,84.60
2018-12-08T21:08:27.438Z,84.40
2018-12-08T21:10:55.083Z,84.50
2018-12-08T21:13:22.594Z,85.00
2018-12-08T21:15:50.667Z,85.20
2018-12-08T21:18:18.267Z,84.70
2018-12-08T21:20:45.850Z,84.10
2018-12-08T21:23:13.613Z,84.50
2018-12-08T21:25:41.376Z,84.90
2018-12-08T21:28:08.881Z,85.50
2018-12-08T21:30:36.434Z,85.80
2018-12-08T21:33:04.046Z,86.40
2018-12-08T21:35:31.557Z,87.00
2018-12-08T21:38:00.036Z,88.00
2018-12-08T21:40:27.634Z,88.40
2018-12-08T21:42:55.335Z,88.70
2018-12-08T21:45:22.846Z,89.20
2018-12-08T21:47:50.956Z,89.60
2018-12-08T21:50:18.852Z,89.70
2018-12-08T21:52:46.405Z,89.90
2018-12-08T21:55:14.042Z,90.20
2018-12-08T21:57:41.563Z,90.20
2018-12-08T22:00:09.989Z,90.00
2018-12-08T22:02:37.538Z,86.80
2018-12-08T22:05:05.923Z,87.10
2018-12-08T22:07:33.756Z,85.90
2018-12-08T22:10:01.314Z,85.00
2018-12-08T22:12:28.848Z,84.40
2018-12-08T22:14:58.537Z,85.30
2018-12-08T22:17:26.424Z,85.10
2018-12-08T22:19:54.034Z,85.60
2018-12-08T22:22:21.550Z,84.50
2018-12-08T22:24:49.072Z,83.90
2018-12-08T22:27:17.317Z,83.80
2018-12-08T22:29:44.819Z,84.30
2018-12-08T22:32:12.324Z,84.00
2018-12-08T22:34:39.833Z,84.10
2018-12-08T22:37:07.349Z,84.30
2018-12-08T22:39:34.950Z,84.40
2018-12-08T22:42:02.447Z,85.00
2018-12-08T22:44:29.971Z,85.30
2018-12-08T22:46:57.498Z,85.40
2018-12-08T22:49:25.018Z,84.90
2018-12-08T22:51:52.534Z,85.10
2018-12-08T22:54:20.060Z,85.30
2018-12-08T22:56:47.551Z,86.50
2018-12-08T22:59:15.076Z,86.20
2018-12-08T23:01:42.642Z,87.40
2018-12-08T23:04:10.152Z,87.70
2018-12-08T23:06:37.664Z,87.10
2018-12-08T23:09:06.216Z,88.70
2018-12-08T23:11:33.726Z,86.50
2018-12-08T23:14:01.454Z,86.70
2018-12-08T23:16:29.320Z,88.80
2018-12-08T23:18:56.812Z,90.70
2018-12-08T23:21:24.303Z,91.40
2018-12-08T23:23:51.823Z,91.80
2018-12-08T23:26:19.680Z,92.10
2018-12-08T23:28:47.391Z,93.40
2018-12-08T23:31:15.002Z,93.80
2018-12-08T23:33:42.521Z,93.80
2018-12-08T23:36:10.055Z,94.00
2018-12-08T23:38:37.541Z,94.30
2018-12-08T23:41:05.062Z,94.40
2018-12-08T23:43:32.567Z,94.70
2018-12-08T23:46:00.063Z,94.90
2018-12-08T23:48:27.582Z,95.30
2018-12-08T23:50:55.152Z,95.50
2018-12-08T23:53:22.649Z,95.70
2018-12-08T23:55:50.146Z,96.20
2018-12-08T23:58:17.649Z,96.60
